createdAt,value
2022-12-13T00:01:24.742Z,32.80
2022-12-13T00:03:56.628Z,41.60
2022-12-13T00:06:25.555Z,39.27
2022-12-13T00:08:53.432Z,48.83
2022-12-13T00:11:21.112Z,32.10
2022-12-13T00:13:48.612Z,36.67
2022-12-13T00:16:18.003Z,38.17
2022-12-13T00:18:51.075Z,29.10
2022-12-13T00:21:20.452Z,38.03
2022-12-13T00:23:48.294Z,40.67
2022-12-13T00:26:18.397Z,33.30
2022-12-13T00:28:49.187Z,45.60
2022-12-13T00:31:53.588Z,54.10
2022-12-13T00:34:05.047Z,46.90
2022-12-13T00:36:32.382Z,34.47
2022-12-13T00:39:02.710Z,37.67
2022-12-13T00:41:32.469Z,35.73
2022-12-13T00:44:00.195Z,45.97
2022-12-13T00:46:28.293Z,55.07
2022-12-13T00:48:57.732Z,39.00
2022-12-13T00:51:26.176Z,58.70
2022-12-13T00:53:53.820Z,40.43
2022-12-13T00:56:23.547Z,42.00
2022-12-13T00:58:52.306Z,62.23
2022-12-13T01:01:28.509Z,54.90
2022-12-13T01:03:57.864Z,41.87
2022-12-13T01:06:45.614Z,45.47
2022-12-13T01:09:18.978Z,51.80
2022-12-13T01:11:46.731Z,42.60
2022-12-13T01:14:14.838Z,48.97
2022-12-13T01:16:42.234Z,50.70
2022-12-13T01:19:09.669Z,41.67
2022-12-13T01:21:37.109Z,36.63
2022-12-13T01:24:05.838Z,52.97
2022-12-13T01:26:33.718Z,49.80
2022-12-13T01:29:01.704Z,42.23
2022-12-13T01:31:29.398Z,43.23
2022-12-13T01:33:56.792Z,34.80
2022-12-13T01:36:27.409Z,34.80
2022-12-13T01:38:57.974Z,50.50
2022-12-13T01:41:28.288Z,38.13
2022-12-13T01:44:03.741Z,42.97
2022-12-13T01:46:33.354Z,38.00
2022-12-13T01:49:19.365Z,49.33
2022-12-13T01:51:58.300Z,46.67
2022-12-13T01:54:33.431Z,35.10
2022-12-13T01:57:03.837Z,37.90
2022-12-13T01:59:31.545Z,38.77
2022-12-13T02:02:01.020Z,37.40
2022-12-13T02:04:55.423Z,37.40
2022-12-13T02:07:26.937Z,33.17
2022-12-13T02:09:57.411Z,38.23
2022-12-13T02:12:31.340Z,34.33
2022-12-13T02:15:05.765Z,37.37
2022-12-13T02:17:54.653Z,38.53
2022-12-13T02:20:35.640Z,50.50
2022-12-13T02:23:21.033Z,37.73
2022-12-13T02:26:13.949Z,36.00
2022-12-13T02:28:56.389Z,40.03
2022-12-13T02:31:35.722Z,39.93
2022-12-13T02:34:27.392Z,27.60
2022-12-13T02:37:00.696Z,44.03
2022-12-13T02:39:41.476Z,43.13
2022-12-13T02:42:22.683Z,48.60
2022-12-13T02:45:20.362Z,39.07
2022-12-13T02:47:51.784Z,43.67
2022-12-13T02:50:20.344Z,40.07
2022-12-13T02:52:47.863Z,41.20
2022-12-13T02:55:16.526Z,37.17
2022-12-13T02:57:45.696Z,42.80
2022-12-13T03:00:17.365Z,37.03
2022-12-13T03:02:53.632Z,36.43
2022-12-13T03:05:39.510Z,52.97
2022-12-13T03:08:21.522Z,36.20
2022-12-13T03:11:09.228Z,47.23
2022-12-13T03:13:39.623Z,46.43
2022-12-13T03:16:23.543Z,43.47
2022-12-13T03:18:53.281Z,36.33
2022-12-13T03:21:22.877Z,52.40
2022-12-13T03:23:50.219Z,53.87
2022-12-13T03:26:26.208Z,40.80
2022-12-13T03:28:53.801Z,48.33
2022-12-13T03:31:21.370Z,46.83
2022-12-13T03:33:48.923Z,44.93
2022-12-13T03:36:17.142Z,37.93
2022-12-13T03:38:45.223Z,52.60
2022-12-13T03:41:18.915Z,43.83
2022-12-13T03:43:46.401Z,49.53
2022-12-13T03:46:13.884Z,51.93
2022-12-13T03:48:41.421Z,43.80
2022-12-13T03:51:08.840Z,39.00
2022-12-13T03:53:36.220Z,42.07
2022-12-13T03:56:05.401Z,46.87
2022-12-13T03:58:35.381Z,39.27
2022-12-13T04:01:09.414Z,45.03
2022-12-13T04:03:38.091Z,37.53
2022-12-13T04:06:06.248Z,40.80
2022-12-13T04:08:34.427Z,45.73
2022-12-13T04:11:22.146Z,37.63
2022-12-13T04:13:49.468Z,31.43
2022-12-13T04:16:16.847Z,46.10
2022-12-13T04:18:44.266Z,31.73
2022-12-13T04:21:11.662Z,32.92
2022-12-13T04:23:39.069Z,36.50
2022-12-13T04:26:06.525Z,34.50
2022-12-13T04:28:34.014Z,48.63
2022-12-13T04:31:01.323Z,30.40
2022-12-13T04:33:28.732Z,33.78
2022-12-13T04:35:56.100Z,32.00
2022-12-13T04:38:23.389Z,49.67
2022-12-13T04:40:50.783Z,36.97
2022-12-13T04:43:18.278Z,30.13
2022-12-13T04:45:45.660Z,39.77
2022-12-13T04:48:13.721Z,33.73
2022-12-13T04:51:01.042Z,35.10
2022-12-13T04:53:29.743Z,31.83
2022-12-13T04:55:57.214Z,29.40
2022-12-13T04:58:24.820Z,29.43
2022-12-13T05:00:52.310Z,36.57
2022-12-13T05:03:19.636Z,33.23
2022-12-13T05:05:47.023Z,27.87
2022-12-13T05:08:14.477Z,26.53
2022-12-13T05:10:41.781Z,42.63
2022-12-13T05:13:09.146Z,29.87
2022-12-13T05:15:36.496Z,25.27
2022-12-13T05:18:10.216Z,33.87
2022-12-13T05:20:39.300Z,36.55
2022-12-13T05:23:06.746Z,38.33
2022-12-13T05:25:36.933Z,33.47
2022-12-13T05:28:08.759Z,32.70
2022-12-13T05:30:53.058Z,34.42
2022-12-13T05:33:22.537Z,34.17
2022-12-13T05:35:49.965Z,30.67
2022-12-13T05:38:17.587Z,27.40
2022-12-13T05:40:45.308Z,42.27
2022-12-13T05:43:21.545Z,34.80
2022-12-13T05:45:49.329Z,38.03
2022-12-13T05:48:24.448Z,33.47
2022-12-13T05:51:10.619Z,33.93
2022-12-13T05:53:40.751Z,35.67
2022-12-13T05:56:09.377Z,40.97
2022-12-13T05:58:38.287Z,38.20
2022-12-13T06:01:08.528Z,29.27
2022-12-13T06:03:36.373Z,33.10
2022-12-13T06:06:05.327Z,36.23
2022-12-13T06:08:33.086Z,28.77
2022-12-13T06:11:11.875Z,36.53
2022-12-13T06:13:42.791Z,41.80
2022-12-13T06:16:21.687Z,42.97
2022-12-13T06:18:55.915Z,35.17
2022-12-13T06:21:40.676Z,47.73
2022-12-13T06:24:11.156Z,34.67
2022-12-13T06:26:38.588Z,33.10
2022-12-13T06:29:05.922Z,42.33
2022-12-13T06:31:33.252Z,30.57
2022-12-13T06:34:14.879Z,38.05
2022-12-13T06:36:43.257Z,54.47
2022-12-13T06:39:10.652Z,41.05
2022-12-13T06:41:37.998Z,41.50
2022-12-13T06:44:05.748Z,41.70
2022-12-13T06:46:33.414Z,43.22
2022-12-13T06:49:01.401Z,32.58
2022-12-13T06:51:32.518Z,51.13
2022-12-13T06:54:02.480Z,37.65
2022-12-13T06:56:30.663Z,38.23
2022-12-13T06:59:01.977Z,45.65
2022-12-13T07:01:37.790Z,38.58
2022-12-13T07:04:29.978Z,43.85
2022-12-13T07:06:53.866Z,58.53
2022-12-13T07:09:21.265Z,41.08
2022-12-13T07:11:52.271Z,43.85
2022-12-13T07:14:20.142Z,39.33
2022-12-13T07:16:47.561Z,34.15
2022-12-13T07:19:23.431Z,33.78
2022-12-13T07:21:52.201Z,39.55
2022-12-13T07:24:19.654Z,30.83
2022-12-13T07:26:47.327Z,34.15
2022-12-13T07:29:22.651Z,36.13
2022-12-13T07:31:50.419Z,32.80
2022-12-13T07:34:17.889Z,30.00
2022-12-13T07:36:45.281Z,44.50
2022-12-13T07:39:12.610Z,44.67
2022-12-13T07:41:39.952Z,36.00
2022-12-13T07:44:08.008Z,33.08
2022-12-13T07:46:35.498Z,32.93
2022-12-13T07:49:04.080Z,37.67
2022-12-13T07:51:33.081Z,45.77
2022-12-13T07:54:00.818Z,37.60
2022-12-13T07:56:34.331Z,43.00
2022-12-13T07:59:01.819Z,33.33
2022-12-13T08:01:34.842Z,32.27
2022-12-13T08:04:03.513Z,35.37
2022-12-13T08:06:34.405Z,46.40
2022-12-13T08:09:01.867Z,32.20
2022-12-13T08:11:29.241Z,40.97
2022-12-13T08:13:56.597Z,30.13
2022-12-13T08:16:27.157Z,31.57
2022-12-13T08:19:02.306Z,41.77
2022-12-13T08:21:55.346Z,36.83
2022-12-13T08:24:28.444Z,28.73
2022-12-13T08:27:01.888Z,33.30
2022-12-13T08:29:33.273Z,32.33
2022-12-13T08:32:20.439Z,29.83
2022-12-13T08:34:47.799Z,24.70
2022-12-13T08:37:15.135Z,30.20
2022-12-13T08:39:42.479Z,40.63
2022-12-13T08:42:20.052Z,34.57
2022-12-13T08:44:50.282Z,26.97
2022-12-13T08:47:23.036Z,23.67
2022-12-13T08:49:51.340Z,33.63
2022-12-13T08:52:19.493Z,22.63
2022-12-13T08:54:46.898Z,20.63
2022-12-13T08:57:14.241Z,28.70
2022-12-13T08:59:41.599Z,15.63
2022-12-13T09:02:13.535Z,21.53
2022-12-13T09:04:41.021Z,18.93
2022-12-13T09:07:08.817Z,16.17
2022-12-13T09:09:37.097Z,18.67
2022-12-13T09:12:10.471Z,20.63
2022-12-13T09:14:53.366Z,22.30
2022-12-13T09:17:37.131Z,22.20
2022-12-13T09:20:09.937Z,12.17
2022-12-13T09:23:01.121Z,18.83
2022-12-13T09:25:37.330Z,7.17
2022-12-13T09:28:09.499Z,11.47
2022-12-13T09:30:37.696Z,14.53
2022-12-13T09:33:29.549Z,16.07
2022-12-13T09:35:52.911Z,13.63
2022-12-13T09:38:20.328Z,9.23
2022-12-13T09:40:49.311Z,15.97
2022-12-13T09:43:32.194Z,12.93
2022-12-13T09:46:13.053Z,17.27
2022-12-13T09:48:50.461Z,13.73
2022-12-13T09:51:28.303Z,20.83
2022-12-13T09:53:58.038Z,19.13
2022-12-13T09:56:25.440Z,7.17
2022-12-13T09:58:55.409Z,9.00
2022-12-13T10:01:23.822Z,12.20
2022-12-13T10:03:56.075Z,13.63
2022-12-13T10:06:28.706Z,19.10
2022-12-13T10:08:59.359Z,15.23
2022-12-13T10:11:32.609Z,14.67
2022-12-13T10:14:45.943Z,16.67
2022-12-13T10:17:19.207Z,11.70
2022-12-13T10:19:51.849Z,13.27
2022-12-13T10:22:22.969Z,16.57
2022-12-13T10:24:54.879Z,11.23
2022-12-13T10:27:35.249Z,15.30
2022-12-13T10:30:07.109Z,11.67
2022-12-13T10:32:44.576Z,12.73
2022-12-13T10:35:30.413Z,16.30
2022-12-13T10:38:03.198Z,13.27
2022-12-13T10:40:40.620Z,8.53
2022-12-13T10:43:36.084Z,8.90
2022-12-13T10:46:15.902Z,19.30
2022-12-13T10:48:53.079Z,13.73
2022-12-13T10:51:21.891Z,8.40
2022-12-13T10:53:52.601Z,5.80
2022-12-13T10:56:23.923Z,20.30
2022-12-13T10:59:31.184Z,8.00
2022-12-13T11:01:58.868Z,16.20
2022-12-13T11:04:31.515Z,19.10
2022-12-13T11:07:21.962Z,14.03
2022-12-13T11:09:52.470Z,15.60
2022-12-13T11:12:23.069Z,8.77
2022-12-13T11:14:54.480Z,8.27
2022-12-13T11:17:29.709Z,7.67
2022-12-13T11:20:00.746Z,14.63
2022-12-13T11:22:30.556Z,16.30
2022-12-13T11:25:19.640Z,11.83
2022-12-13T11:28:26.459Z,15.30
2022-12-13T11:31:03.512Z,20.77
2022-12-13T11:34:08.181Z,10.37
2022-12-13T11:36:41.458Z,8.87
2022-12-13T11:39:30.849Z,7.73
2022-12-13T11:42:33.967Z,11.07
2022-12-13T11:45:23.497Z,12.93
2022-12-13T11:48:04.764Z,11.33
2022-12-13T11:50:38.695Z,14.90
2022-12-13T11:53:27.632Z,18.83
2022-12-13T11:56:01.373Z,14.07
2022-12-13T12:01:55.821Z,11.77
2022-12-13T12:04:35.377Z,17.13
2022-12-13T12:07:31.694Z,10.33
2022-12-13T12:10:26.945Z,10.07
2022-12-13T12:13:01.640Z,15.10
2022-12-13T12:15:49.109Z,15.20
2022-12-13T12:18:23.152Z,18.70
2022-12-13T12:21:16.426Z,11.20
2022-12-13T12:24:20.299Z,14.00
2022-12-13T12:27:22.628Z,11.93
2022-12-13T12:30:10.869Z,12.37
2022-12-13T12:33:02.600Z,10.63
2022-12-13T12:36:03.115Z,11.27
2022-12-13T12:38:33.232Z,12.67
2022-12-13T12:41:21.558Z,12.23
2022-12-13T12:44:11.788Z,13.20
2022-12-13T12:47:09.150Z,8.53
2022-12-13T12:49:57.482Z,10.07
2022-12-13T12:52:59.000Z,27.33
2022-12-13T12:55:51.570Z,15.50
2022-12-13T12:58:43.668Z,11.53
2022-12-13T13:01:23.231Z,12.50
2022-12-13T13:03:53.397Z,12.10
2022-12-13T13:06:45.389Z,3.23
2022-12-13T13:09:24.511Z,5.00
2022-12-13T13:11:57.583Z,14.00
2022-12-13T13:14:36.975Z,14.83
2022-12-13T13:17:16.520Z,15.30
2022-12-13T13:20:04.140Z,12.60
2022-12-13T13:22:43.038Z,19.50
2022-12-13T13:25:22.671Z,15.00
2022-12-13T13:27:51.269Z,12.80
2022-12-13T13:30:25.713Z,7.03
2022-12-13T13:32:54.964Z,9.60
2022-12-13T13:35:32.046Z,16.23
2022-12-13T13:38:00.665Z,18.40
2022-12-13T13:40:38.627Z,15.40
2022-12-13T13:43:06.114Z,17.50
2022-12-13T13:45:54.126Z,11.73
2022-12-13T13:48:36.410Z,10.90
2022-12-13T13:51:22.266Z,15.30
2022-12-13T13:54:22.404Z,12.77
2022-12-13T13:58:07.564Z,14.07
2022-12-13T14:00:41.123Z,9.07
2022-12-13T14:03:49.177Z,11.90
2022-12-13T14:06:49.700Z,8.70
2022-12-13T14:09:54.533Z,16.27
2022-12-13T14:12:24.579Z,13.23
2022-12-13T14:15:25.588Z,17.60
2022-12-13T14:18:21.112Z,16.90
2022-12-13T14:21:15.833Z,19.97
2022-12-13T14:24:17.261Z,13.10
2022-12-13T14:27:08.304Z,25.70
2022-12-13T14:29:57.637Z,17.07
2022-12-13T14:32:32.842Z,15.63
2022-12-13T14:35:25.297Z,20.60
2022-12-13T14:38:00.705Z,18.63
2022-12-13T14:40:34.979Z,20.83
2022-12-13T14:43:02.894Z,21.33
2022-12-13T14:45:33.303Z,21.07
2022-12-13T14:48:05.849Z,21.70
2022-12-13T14:50:35.575Z,29.33
2022-12-13T14:53:03.398Z,20.93
2022-12-13T14:55:33.379Z,21.27
2022-12-13T14:58:02.642Z,20.93
2022-12-13T15:00:36.138Z,20.27
2022-12-13T15:03:05.482Z,13.90
2022-12-13T15:05:37.410Z,21.13
2022-12-13T15:08:10.680Z,17.40
2022-12-13T15:10:48.519Z,20.97
2022-12-13T15:13:35.562Z,21.00
2022-12-13T15:16:10.609Z,26.00
2022-12-13T15:18:41.579Z,14.30
2022-12-13T15:21:22.824Z,22.47
2022-12-13T15:23:53.981Z,26.73
2022-12-13T15:26:30.327Z,28.53
2022-12-13T15:29:00.695Z,14.23
2022-12-13T15:31:28.874Z,19.93
2022-12-13T15:34:30.382Z,25.10
2022-12-13T15:37:12.311Z,21.90
2022-12-13T15:40:08.617Z,26.73
2022-12-13T15:42:38.463Z,23.23
2022-12-13T15:45:25.685Z,21.83
2022-12-13T15:47:54.345Z,20.50
2022-12-13T15:50:43.802Z,23.90
2022-12-13T15:53:34.003Z,22.60
2022-12-13T15:56:07.908Z,19.53
2022-12-13T15:58:37.905Z,24.70
2022-12-13T16:01:05.638Z,28.60
2022-12-13T16:03:44.586Z,21.50
2022-12-13T16:06:18.272Z,25.50
2022-12-13T16:08:49.444Z,20.93
2022-12-13T16:11:29.591Z,16.80
2022-12-13T16:14:27.022Z,17.77
2022-12-13T16:16:55.265Z,13.80
2022-12-13T16:19:23.042Z,16.67
2022-12-13T16:21:50.457Z,21.77
2022-12-13T16:24:17.866Z,21.87
2022-12-13T16:26:49.012Z,23.63
2022-12-13T16:29:19.510Z,24.40
2022-12-13T16:31:47.319Z,23.07
2022-12-13T16:34:18.176Z,19.90
2022-12-13T16:36:47.489Z,18.83
2022-12-13T16:39:15.601Z,13.07
2022-12-13T16:41:44.848Z,19.33
2022-12-13T16:44:21.983Z,18.33
2022-12-13T16:47:12.941Z,19.17
2022-12-13T16:49:37.104Z,19.20
2022-12-13T16:52:07.546Z,13.53
2022-12-13T16:54:35.596Z,22.00
2022-12-13T16:57:02.933Z,18.53
2022-12-13T16:59:30.530Z,15.30
2022-12-13T17:01:58.075Z,11.83
2022-12-13T17:04:27.411Z,26.30
2022-12-13T17:06:55.546Z,19.47
2022-12-13T17:09:25.002Z,17.23
2022-12-13T17:11:52.574Z,16.97
2022-12-13T17:14:20.017Z,22.80
2022-12-13T17:16:47.923Z,19.73
2022-12-13T17:19:15.669Z,19.57
2022-12-13T17:21:43.103Z,14.40
2022-12-13T17:24:10.541Z,13.90
2022-12-13T17:26:37.829Z,17.90
2022-12-13T17:29:05.251Z,11.27
2022-12-13T17:31:35.644Z,12.43
2022-12-13T17:34:04.411Z,23.27
2022-12-13T17:36:31.896Z,20.43
2022-12-13T17:38:59.758Z,25.37
2022-12-13T17:41:27.175Z,11.10
2022-12-13T17:44:00.082Z,16.87
2022-12-13T17:46:27.531Z,12.17
2022-12-13T17:48:55.021Z,14.97
2022-12-13T17:51:22.498Z,16.00
2022-12-13T17:53:49.780Z,10.57
2022-12-13T17:56:17.860Z,14.33
2022-12-13T17:58:45.906Z,14.70
2022-12-13T18:01:21.649Z,23.20
2022-12-13T18:03:51.953Z,15.63
2022-12-13T18:06:19.672Z,15.20
2022-12-13T18:08:47.821Z,11.03
2022-12-13T18:11:33.089Z,18.47
2022-12-13T18:14:02.765Z,10.37
2022-12-13T18:16:36.518Z,12.50
2022-12-13T18:19:10.961Z,7.63
2022-12-13T18:21:38.377Z,9.93
2022-12-13T18:24:06.940Z,11.33
2022-12-13T18:26:34.587Z,22.87
2022-12-13T18:29:02.848Z,18.93
2022-12-13T18:31:30.282Z,12.23
2022-12-13T18:33:57.766Z,20.33
2022-12-13T18:36:25.781Z,6.77
2022-12-13T18:38:53.406Z,13.70
2022-12-13T18:41:23.350Z,13.67
2022-12-13T18:44:07.928Z,14.37
2022-12-13T18:46:37.511Z,18.30
2022-12-13T18:49:05.914Z,7.33
2022-12-13T18:51:33.932Z,8.90
2022-12-13T18:54:01.310Z,2.60
2022-12-13T18:56:28.770Z,10.17
2022-12-13T18:58:58.186Z,16.40
2022-12-13T19:01:30.351Z,15.57
2022-12-13T19:03:57.840Z,11.43
2022-12-13T19:06:26.988Z,14.40
2022-12-13T19:08:56.763Z,17.30
2022-12-13T19:11:26.155Z,8.13
2022-12-13T19:13:53.780Z,4.87
2022-12-13T19:16:22.223Z,10.87
2022-12-13T19:18:50.120Z,9.17
2022-12-13T19:21:19.393Z,11.30
2022-12-13T19:23:53.206Z,11.93
2022-12-13T19:26:24.373Z,8.27
2022-12-13T19:28:51.775Z,8.03
2022-12-13T19:31:19.263Z,9.50
2022-12-13T19:33:47.718Z,5.90
2022-12-13T19:36:15.738Z,5.10
2022-12-13T19:38:43.705Z,13.90
2022-12-13T19:41:16.575Z,8.77
2022-12-13T19:43:50.631Z,8.60
2022-12-13T19:46:19.796Z,5.23
2022-12-13T19:48:47.437Z,9.23
2022-12-13T19:51:15.079Z,12.10
2022-12-13T19:53:42.603Z,10.63
2022-12-13T19:56:11.665Z,7.10
2022-12-13T19:58:39.765Z,7.87
2022-12-13T20:01:07.925Z,10.63
2022-12-13T20:03:37.065Z,21.13
2022-12-13T20:06:05.915Z,12.50
2022-12-13T20:08:33.507Z,12.30
2022-12-13T20:11:05.751Z,19.33
2022-12-13T20:13:34.740Z,24.67
2022-12-13T20:16:03.082Z,20.80
2022-12-13T20:18:30.751Z,9.93
2022-12-13T20:21:11.577Z,7.70
2022-12-13T20:23:39.732Z,8.40
2022-12-13T20:26:10.305Z,9.60
2022-12-13T20:28:38.143Z,5.83
2022-12-13T20:31:07.784Z,9.27
2022-12-13T20:33:36.027Z,15.77
2022-12-13T20:36:26.126Z,14.87
2022-12-13T20:38:56.128Z,9.60
2022-12-13T20:41:25.406Z,7.50
2022-12-13T20:43:54.087Z,8.97
2022-12-13T20:46:22.324Z,9.73
2022-12-13T20:48:50.215Z,12.70
2022-12-13T20:51:19.880Z,11.90
2022-12-13T20:53:48.839Z,8.27
2022-12-13T20:56:21.365Z,6.77
2022-12-13T20:58:49.152Z,8.17
2022-12-13T21:01:19.779Z,8.03
2022-12-13T21:03:47.260Z,7.17
2022-12-13T21:06:15.115Z,13.90
2022-12-13T21:08:51.631Z,11.80
2022-12-13T21:11:26.103Z,13.43
2022-12-13T21:14:20.888Z,7.40
2022-12-13T21:16:50.565Z,9.33
2022-12-13T21:19:21.328Z,11.60
2022-12-13T21:21:49.146Z,8.30
2022-12-13T21:24:18.076Z,9.97
2022-12-13T21:26:45.688Z,8.13
2022-12-13T21:29:13.801Z,8.30
2022-12-13T21:31:48.806Z,5.70
2022-12-13T21:34:16.918Z,12.53
2022-12-13T21:36:47.116Z,7.53
2022-12-13T21:39:16.023Z,12.93
2022-12-13T21:41:43.408Z,6.07
2022-12-13T21:44:12.167Z,6.30
2022-12-13T21:49:27.106Z,9.03
2022-12-13T21:51:55.067Z,10.33
2022-12-13T21:54:22.738Z,11.00
2022-12-13T21:57:09.088Z,8.13
2022-12-13T21:59:36.526Z,13.43
2022-12-13T22:02:12.464Z,8.30
2022-12-13T22:04:43.492Z,10.20
2022-12-13T22:07:13.392Z,7.70
2022-12-13T22:09:41.160Z,9.77
2022-12-13T22:12:10.404Z,7.97
2022-12-13T22:14:38.402Z,7.10
2022-12-13T22:17:05.765Z,7.10
2022-12-13T22:19:33.254Z,8.67
2022-12-13T22:22:00.781Z,12.00
2022-12-13T22:24:28.225Z,9.50
2022-12-13T22:26:55.550Z,7.83
2022-12-13T22:29:22.987Z,10.07
2022-12-13T22:31:50.631Z,17.70
2022-12-13T22:34:18.125Z,7.63
2022-12-13T22:36:45.477Z,14.10
2022-12-13T22:39:19.577Z,10.43
2022-12-13T22:41:47.643Z,20.73
2022-12-13T22:44:16.272Z,7.67
2022-12-13T22:46:43.718Z,9.50
2022-12-13T22:49:12.036Z,3.87
2022-12-13T22:51:39.759Z,6.67
2022-12-13T22:54:07.765Z,10.00
2022-12-13T22:56:35.489Z,10.23
2022-12-13T22:59:04.168Z,6.53
2022-12-13T23:01:33.386Z,13.13
2022-12-13T23:04:01.080Z,12.57
2022-12-13T23:06:30.584Z,12.40
2022-12-13T23:09:00.162Z,10.10
2022-12-13T23:11:47.641Z,7.30
2022-12-13T23:14:20.237Z,10.13
2022-12-13T23:16:47.749Z,10.73
2022-12-13T23:19:41.063Z,7.07
2022-12-13T23:22:07.198Z,8.53
2022-12-13T23:24:34.576Z,9.03
2022-12-13T23:27:01.954Z,13.90
2022-12-13T23:29:29.287Z,10.40
2022-12-13T23:31:56.950Z,13.00
2022-12-13T23:34:24.260Z,11.27
2022-12-13T23:36:51.718Z,8.50
2022-12-13T23:39:19.015Z,5.50
2022-12-13T23:41:46.500Z,7.13
2022-12-13T23:44:13.876Z,9.03
2022-12-13T23:46:41.259Z,7.73
2022-12-13T23:49:09.858Z,10.73
2022-12-13T23:51:37.918Z,6.63
2022-12-13T23:54:08.274Z,6.60
2022-12-13T23:56:35.722Z,7.83
2022-12-13T23:59:03.148Z,13.90
